createdAt,value
2023-03-12T00:00:10.693Z,86.80
2023-03-12T00:05:32.852Z,86.57
2023-03-12T00:10:35.349Z,86.21
2023-03-12T00:15:38.667Z,86.11
2023-03-12T00:20:40.433Z,86.03
2023-03-12T00:25:44.194Z,86.24
2023-03-12T00:30:47.359Z,85.71
2023-03-12T00:35:49.274Z,85.52
2023-03-12T00:40:51.115Z,85.64
2023-03-12T00:45:53.497Z,85.43
2023-03-12T00:50:55.476Z,85.00
2023-03-12T00:55:57.462Z,84.27
2023-03-12T01:00:59.512Z,84.73
2023-03-12T01:06:01.413Z,84.59
2023-03-12T01:11:03.702Z,84.53
2023-03-12T01:16:06.168Z,84.36
2023-03-12T01:21:07.986Z,84.60
2023-03-12T01:26:09.741Z,84.48
2023-03-12T01:31:15.358Z,84.40
2023-03-12T01:36:26.137Z,84.47
2023-03-12T01:41:32.449Z,83.95
2023-03-12T01:46:39.873Z,83.66
2023-03-12T01:51:47.280Z,83.86
2023-03-12T01:56:50.221Z,84.10
2023-03-12T02:01:52.670Z,83.95
2023-03-12T02:06:54.443Z,83.80
2023-03-12T02:11:56.230Z,83.48
2023-03-12T02:16:58.405Z,83.63
2023-03-12T02:22:01.305Z,83.88
2023-03-12T02:27:05.024Z,83.98
2023-03-12T02:32:09.167Z,83.85
2023-03-12T02:37:11.036Z,83.81
2023-03-12T02:42:12.908Z,84.62
2023-03-12T02:47:15.399Z,84.90
2023-03-12T02:52:17.283Z,84.82
2023-03-12T02:57:19.155Z,84.56
2023-03-12T03:02:21.032Z,84.19
2023-03-12T03:07:22.930Z,84.14
2023-03-12T03:12:24.681Z,84.74
2023-03-12T03:17:26.970Z,84.66
2023-03-12T03:22:28.749Z,85.05
2023-03-12T03:27:30.527Z,85.08
2023-03-12T03:32:32.360Z,85.21
2023-03-12T03:37:34.175Z,85.12
2023-03-12T03:42:36.046Z,84.72
2023-03-12T03:47:38.518Z,84.23
2023-03-12T03:52:40.210Z,83.93
2023-03-12T03:57:41.877Z,83.61
2023-03-12T04:02:44.685Z,83.43
2023-03-12T04:07:47.169Z,83.29
2023-03-12T04:12:49.451Z,83.38
2023-03-12T04:17:51.273Z,83.19
2023-03-12T04:22:53.513Z,83.04
2023-03-12T04:27:55.186Z,83.13
2023-03-12T04:32:56.863Z,83.33
2023-03-12T04:38:01.197Z,83.20
2023-03-12T04:43:02.865Z,83.61
2023-03-12T04:48:05.979Z,84.00
2023-03-12T04:53:07.715Z,84.08
2023-03-12T04:58:09.827Z,83.58
2023-03-12T05:03:11.568Z,83.98
2023-03-12T05:08:13.704Z,84.40
2023-03-12T05:13:17.208Z,84.53
2023-03-12T05:18:20.927Z,84.24
2023-03-12T05:23:22.793Z,84.01
2023-03-12T05:28:27.826Z,84.11
2023-03-12T05:33:29.725Z,83.89
2023-03-12T05:38:31.709Z,83.64
2023-03-12T05:43:34.200Z,83.62
2023-03-12T05:48:36.683Z,83.41
2023-03-12T05:53:38.358Z,83.03
2023-03-12T05:58:41.153Z,80.88
2023-03-12T06:03:43.219Z,72.30
2023-03-12T06:08:45.822Z,60.89
2023-03-12T06:13:48.008Z,56.61
2023-03-12T06:18:57.051Z,52.74
2023-03-12T06:23:59.854Z,46.02
2023-03-12T06:29:01.620Z,47.05
2023-03-12T06:34:03.911Z,41.90
2023-03-12T06:39:05.988Z,41.13
2023-03-12T06:44:08.175Z,40.31
2023-03-12T06:49:11.177Z,35.27
2023-03-12T06:54:12.950Z,34.89
2023-03-12T06:59:15.135Z,33.11
2023-03-12T07:04:17.222Z,31.98
2023-03-12T07:09:19.915Z,33.97
2023-03-12T07:14:21.689Z,29.85
2023-03-12T07:19:23.592Z,30.95
2023-03-12T07:24:26.168Z,31.90
2023-03-12T07:29:28.042Z,37.18
2023-03-12T07:34:30.356Z,40.76
2023-03-12T07:39:32.905Z,44.14
2023-03-12T07:44:36.384Z,44.36
2023-03-12T07:49:41.199Z,44.16
2023-03-12T07:54:43.553Z,43.89
2023-03-12T07:59:46.906Z,42.72
2023-03-12T08:04:49.221Z,41.56
2023-03-12T08:09:52.084Z,35.50
2023-03-12T08:14:54.408Z,31.84
2023-03-12T08:19:58.280Z,31.85
2023-03-12T08:25:00.562Z,33.58
2023-03-12T08:30:05.003Z,37.08
2023-03-12T08:35:08.422Z,40.43
2023-03-12T08:40:14.616Z,43.03
2023-03-12T08:45:18.177Z,45.73
2023-03-12T08:50:22.574Z,47.67
2023-03-12T08:55:27.907Z,48.22
2023-03-12T09:00:30.795Z,47.06
2023-03-12T09:05:33.190Z,45.45
2023-03-12T09:10:36.700Z,45.73
2023-03-12T09:15:39.095Z,44.92
2023-03-12T09:20:43.120Z,36.89
2023-03-12T09:25:46.335Z,32.68
2023-03-12T09:30:48.951Z,27.19
2023-03-12T09:35:58.939Z,24.90
2023-03-12T09:41:03.005Z,23.93
2023-03-12T09:46:15.708Z,27.44
2023-03-12T09:51:28.162Z,30.16
2023-03-12T09:56:31.063Z,34.01
2023-03-12T10:01:38.481Z,34.57
2023-03-12T10:07:11.710Z,34.14
2023-03-12T10:12:17.298Z,32.49
2023-03-12T10:17:31.309Z,34.05
2023-03-12T10:22:59.607Z,36.72
2023-03-12T10:28:27.797Z,42.21
2023-03-12T10:33:41.454Z,48.89
2023-03-12T10:38:43.630Z,55.41
2023-03-12T10:43:45.816Z,56.86
2023-03-12T10:48:47.998Z,57.85
2023-03-12T10:53:51.922Z,56.13
2023-03-12T10:58:54.122Z,54.00
2023-03-12T11:04:14.727Z,50.86
2023-03-12T11:09:19.364Z,49.37
2023-03-12T11:14:24.837Z,48.68
2023-03-12T11:19:26.807Z,46.44
2023-03-12T11:24:29.805Z,44.03
2023-03-12T11:29:32.887Z,43.24
2023-03-12T11:34:35.918Z,43.19
2023-03-12T11:39:43.633Z,43.89
2023-03-12T11:44:59.642Z,44.97
2023-03-12T11:50:23.942Z,46.33
2023-03-12T11:55:38.619Z,45.98
2023-03-12T12:00:51.968Z,46.30
2023-03-12T12:06:00.193Z,46.30
2023-03-12T12:11:16.605Z,45.68
2023-03-12T12:16:46.599Z,46.05
2023-03-12T12:22:27.839Z,46.40
2023-03-12T12:27:36.684Z,46.39
2023-03-12T12:32:44.733Z,46.34
2023-03-12T12:38:19.038Z,45.54
2023-03-12T12:43:31.882Z,46.08
2023-03-12T12:48:39.686Z,46.11
2023-03-12T12:53:53.545Z,46.64
2023-03-12T12:59:33.683Z,47.05
2023-03-12T13:04:40.080Z,46.92
2023-03-12T13:09:53.146Z,47.08
2023-03-12T13:14:57.267Z,46.78
2023-03-12T13:20:27.900Z,45.95
2023-03-12T13:25:45.778Z,46.17
2023-03-12T13:30:54.250Z,46.79
2023-03-12T13:36:05.493Z,46.27
2023-03-12T13:41:09.323Z,45.77
2023-03-12T13:46:37.563Z,46.23
2023-03-12T13:51:55.222Z,46.49
2023-03-12T13:57:02.068Z,46.11
2023-03-12T14:02:15.311Z,46.68
2023-03-12T14:07:48.310Z,47.18
2023-03-12T14:13:05.747Z,47.55
2023-03-12T14:18:22.162Z,47.50
2023-03-12T14:23:34.281Z,47.71
2023-03-12T14:28:41.290Z,47.67
2023-03-12T14:34:16.055Z,47.92
2023-03-12T14:39:18.859Z,47.73
2023-03-12T14:44:27.249Z,47.75
2023-03-12T14:49:31.059Z,47.98
2023-03-12T14:54:33.204Z,48.16
2023-03-12T14:59:37.290Z,48.30
2023-03-12T15:04:40.865Z,48.60
2023-03-12T15:09:46.300Z,48.87
2023-03-12T15:14:52.437Z,49.13
2023-03-12T15:19:56.873Z,49.34
2023-03-12T15:25:15.956Z,49.58
2023-03-12T15:30:25.795Z,50.45
2023-03-12T15:35:32.193Z,50.79
2023-03-12T15:40:34.381Z,50.88
2023-03-12T15:45:38.608Z,50.84
2023-03-12T15:50:43.459Z,51.20
2023-03-12T15:55:59.279Z,51.32
2023-03-12T16:01:12.664Z,51.57
2023-03-12T16:06:17.874Z,51.70
2023-03-12T16:11:26.220Z,52.27
2023-03-12T16:16:28.356Z,52.42
2023-03-12T16:21:30.469Z,52.81
2023-03-12T16:26:35.248Z,53.20
2023-03-12T16:31:37.623Z,53.77
2023-03-12T16:36:39.422Z,54.31
2023-03-12T16:41:42.167Z,55.26
2023-03-12T16:46:44.752Z,55.92
2023-03-12T16:51:48.069Z,56.57
2023-03-12T16:56:50.675Z,56.98
2023-03-12T17:01:54.686Z,56.91
2023-03-12T17:06:56.765Z,56.99
2023-03-12T17:11:58.967Z,57.37
2023-03-12T17:17:00.975Z,58.16
2023-03-12T17:22:04.146Z,58.41
2023-03-12T17:27:06.636Z,59.13
2023-03-12T17:32:08.919Z,58.94
2023-03-12T17:37:10.993Z,60.46
2023-03-12T17:42:13.027Z,61.04
2023-03-12T17:47:15.792Z,61.67
2023-03-12T17:52:19.753Z,62.12
2023-03-12T17:57:24.969Z,62.41
2023-03-12T18:02:29.527Z,62.40
2023-03-12T18:07:34.711Z,63.04
2023-03-12T18:12:40.944Z,63.20
2023-03-12T18:17:50.673Z,63.80
2023-03-12T18:22:53.696Z,64.27
2023-03-12T18:27:56.836Z,64.94
2023-03-12T18:32:59.012Z,66.27
2023-03-12T18:38:01.698Z,66.83
2023-03-12T18:43:03.866Z,66.49
2023-03-12T18:48:06.891Z,66.68
2023-03-12T18:53:09.261Z,66.40
2023-03-12T18:58:11.853Z,67.77
2023-03-12T19:03:15.022Z,67.31
2023-03-12T19:08:20.420Z,67.80
2023-03-12T19:13:23.457Z,68.19
2023-03-12T19:18:26.332Z,70.30
2023-03-12T19:23:29.946Z,69.06
2023-03-12T19:28:34.119Z,68.91
2023-03-12T19:33:37.600Z,68.95
2023-03-12T19:38:40.080Z,68.15
2023-03-12T19:43:43.310Z,69.81
2023-03-12T19:48:46.391Z,70.19
2023-03-12T19:53:49.330Z,71.31
2023-03-12T19:58:51.574Z,70.66
2023-03-12T20:03:56.231Z,71.01
2023-03-12T20:08:58.601Z,70.60
2023-03-12T20:14:00.477Z,70.29
2023-03-12T20:19:04.499Z,70.03
2023-03-12T20:24:06.897Z,70.10
2023-03-12T20:29:09.487Z,68.80
2023-03-12T20:34:11.770Z,68.38
2023-03-12T20:39:14.115Z,68.97
2023-03-12T20:44:18.395Z,69.36
2023-03-12T20:49:21.187Z,69.63
2023-03-12T20:54:23.685Z,69.96
2023-03-12T20:59:28.835Z,69.55
2023-03-12T21:04:31.230Z,70.49
2023-03-12T21:09:34.247Z,70.86
2023-03-12T21:14:38.632Z,71.69
2023-03-12T21:19:41.771Z,71.65
2023-03-12T21:24:43.861Z,70.91
2023-03-12T21:29:45.530Z,70.55
2023-03-12T21:34:48.088Z,70.71
2023-03-12T21:39:50.506Z,71.38
2023-03-12T21:44:52.901Z,70.41
2023-03-12T21:49:56.211Z,69.76
2023-03-12T21:54:58.101Z,70.81
2023-03-12T21:59:59.845Z,72.73
2023-03-12T22:05:01.533Z,73.97
2023-03-12T22:10:05.761Z,73.01
2023-03-12T22:15:09.613Z,72.06
2023-03-12T22:20:12.178Z,71.67
2023-03-12T22:25:14.058Z,72.99
2023-03-12T22:30:16.460Z,73.32
2023-03-12T22:35:25.282Z,75.39
2023-03-12T22:40:27.468Z,77.16
2023-03-12T22:45:29.242Z,77.78
2023-03-12T22:50:32.732Z,78.08
2023-03-12T22:55:34.428Z,77.66
2023-03-12T23:00:36.205Z,77.96
2023-03-12T23:05:37.974Z,77.91
2023-03-12T23:10:39.951Z,77.32
2023-03-12T23:15:42.168Z,77.22
2023-03-12T23:20:45.245Z,76.98
2023-03-12T23:25:53.173Z,76.23
2023-03-12T23:31:07.643Z,77.87
2023-03-12T23:36:15.760Z,79.20
2023-03-12T23:41:23.265Z,80.10
2023-03-12T23:46:27.018Z,79.74
2023-03-12T23:51:32.408Z,79.74
2023-03-12T23:56:36.984Z,79.54
